Terminal Aerodrome Forecast
Issued by NWS Duluth, MN

Home | Current Version | Previous Version | Text Only | Print | Product List | Glossary On
Versions: 1 2 3 4 5 6 7 8 9 10 11 12 13 14 15 16 17 18 19 20 21 22 23
745
FTUS43 KDLH 141742
TAFDLH
TAF
KDLH 141742Z 1418/1518 10006KT 6SM -SHRA BKN015 OVC090
     FM141900 10006KT P6SM VCSH BKN022 OVC090
     FM142200 10003KT P6SM BKN045
     FM150500 VRB03KT 5SM BR SCT120
     FM150900 00000KT 3/4SM BR BKN003
     FM151300 07005KT P6SM SKC=

USA.gov is the U.S. government's official web portal to all federal, state and local government web resources and services.